sensor_id;sensor_type;location;lat;lon;timestamp;P1;durP1;ratioP1;P2;durP2;ratioP2
44925;SDS011;30662;51.210;7.656;2022-08-19T00:01:27;14.07;;;12.27;;
44925;SDS011;30662;51.210;7.656;2022-08-19T00:03:59;13.25;;;11.85;;
44925;SDS011;30662;51.210;7.656;2022-08-19T00:06:29;13.13;;;11.82;;
44925;SDS011;30662;51.210;7.656;2022-08-19T00:08:56;14.38;;;12.95;;
44925;SDS011;30662;51.210;7.656;2022-08-19T00:11:23;15.30;;;13.88;;
44925;SDS011;30662;51.210;7.656;2022-08-19T00:13:51;15.23;;;13.73;;
44925;SDS011;30662;51.210;7.656;2022-08-19T00:16:18;17.10;;;14.32;;
44925;SDS011;30662;51.210;7.656;2022-08-19T00:18:51;16.50;;;14.70;;
44925;SDS011;30662;51.210;7.656;2022-08-19T00:21:17;18.05;;;13.00;;
44925;SDS011;30662;51.210;7.656;2022-08-19T00:23:43;14.25;;;12.73;;
44925;SDS011;30662;51.210;7.656;2022-08-19T00:26:10;12.75;;;11.52;;
44925;SDS011;30662;51.210;7.656;2022-08-19T00:28:36;15.00;;;12.02;;
44925;SDS011;30662;51.210;7.656;2022-08-19T00:31:03;13.68;;;12.15;;
44925;SDS011;30662;51.210;7.656;2022-08-19T00:33:30;14.27;;;12.88;;
44925;SDS011;30662;51.210;7.656;2022-08-19T00:36:06;15.13;;;13.60;;
44925;SDS011;30662;51.210;7.656;2022-08-19T00:38:33;14.77;;;13.30;;
44925;SDS011;30662;51.210;7.656;2022-08-19T00:41:03;15.50;;;13.88;;
44925;SDS011;30662;51.210;7.656;2022-08-19T00:43:30;15.55;;;13.63;;
44925;SDS011;30662;51.210;7.656;2022-08-19T00:45:56;14.35;;;12.93;;
44925;SDS011;30662;51.210;7.656;2022-08-19T00:48:22;16.17;;;14.68;;
44925;SDS011;30662;51.210;7.656;2022-08-19T00:50:49;14.60;;;13.15;;
44925;SDS011;30662;51.210;7.656;2022-08-19T00:53:19;16.17;;;14.57;;
44925;SDS011;30662;51.210;7.656;2022-08-19T00:55:48;16.55;;;14.85;;
44925;SDS011;30662;51.210;7.656;2022-08-19T00:58:19;15.15;;;13.65;;
44925;SDS011;30662;51.210;7.656;2022-08-19T01:00:47;16.08;;;14.48;;
44925;SDS011;30662;51.210;7.656;2022-08-19T01:03:15;14.90;;;13.40;;
44925;SDS011;30662;51.210;7.656;2022-08-19T01:05:44;15.18;;;13.45;;
44925;SDS011;30662;51.210;7.656;2022-08-19T01:08:13;15.32;;;12.82;;
44925;SDS011;30662;51.210;7.656;2022-08-19T01:10:48;15.13;;;13.05;;
44925;SDS011;30662;51.210;7.656;2022-08-19T01:13:20;15.45;;;13.13;;
44925;SDS011;30662;51.210;7.656;2022-08-19T01:15:54;14.07;;;12.60;;
44925;SDS011;30662;51.210;7.656;2022-08-19T01:18:22;13.65;;;12.30;;
44925;SDS011;30662;51.210;7.656;2022-08-19T01:20:50;14.13;;;12.43;;
44925;SDS011;30662;51.210;7.656;2022-08-19T01:23:19;13.98;;;12.45;;
44925;SDS011;30662;51.210;7.656;2022-08-19T01:25:47;13.77;;;12.38;;
44925;SDS011;30662;51.210;7.656;2022-08-19T01:28:22;16.50;;;12.65;;
44925;SDS011;30662;51.210;7.656;2022-08-19T01:31:05;14.60;;;13.10;;
44925;SDS011;30662;51.210;7.656;2022-08-19T01:33:53;15.15;;;13.00;;
44925;SDS011;30662;51.210;7.656;2022-08-19T01:38:52;14.70;;;13.10;;
44925;SDS011;30662;51.210;7.656;2022-08-19T01:41:19;14.85;;;13.40;;
44925;SDS011;30662;51.210;7.656;2022-08-19T01:43:45;14.90;;;13.32;;
44925;SDS011;30662;51.210;7.656;2022-08-19T01:46:31;15.10;;;12.63;;
44925;SDS011;30662;51.210;7.656;2022-08-19T01:48:57;14.07;;;12.60;;
44925;SDS011;30662;51.210;7.656;2022-08-19T01:51:24;15.60;;;14.10;;
44925;SDS011;30662;51.210;7.656;2022-08-19T01:53:50;16.33;;;14.63;;
44925;SDS011;30662;51.210;7.656;2022-08-19T01:56:17;15.70;;;14.20;;
44925;SDS011;30662;51.210;7.656;2022-08-19T01:58:54;14.15;;;12.63;;
44925;SDS011;30662;51.210;7.656;2022-08-19T02:01:25;16.15;;;14.40;;
44925;SDS011;30662;51.210;7.656;2022-08-19T02:03:56;16.02;;;14.40;;
44925;SDS011;30662;51.210;7.656;2022-08-19T02:06:23;18.23;;;14.27;;
44925;SDS011;30662;51.210;7.656;2022-08-19T02:08:52;16.60;;;14.70;;
44925;SDS011;30662;51.210;7.656;2022-08-19T02:11:27;17.10;;;15.00;;
44925;SDS011;30662;51.210;7.656;2022-08-19T02:13:56;16.08;;;14.43;;
44925;SDS011;30662;51.210;7.656;2022-08-19T02:16:23;17.17;;;15.30;;
44925;SDS011;30662;51.210;7.656;2022-08-19T02:18:49;16.45;;;14.75;;
44925;SDS011;30662;51.210;7.656;2022-08-19T02:21:16;16.13;;;14.43;;
44925;SDS011;30662;51.210;7.656;2022-08-19T02:23:44;15.25;;;13.65;;
44925;SDS011;30662;51.210;7.656;2022-08-19T02:26:10;15.70;;;14.02;;
44925;SDS011;30662;51.210;7.656;2022-08-19T02:28:38;15.80;;;13.68;;
44925;SDS011;30662;51.210;7.656;2022-08-19T02:31:08;14.55;;;13.13;;
44925;SDS011;30662;51.210;7.656;2022-08-19T02:33:38;16.15;;;14.55;;
44925;SDS011;30662;51.210;7.656;2022-08-19T02:36:05;15.38;;;13.80;;
44925;SDS011;30662;51.210;7.656;2022-08-19T02:38:32;15.40;;;13.88;;
44925;SDS011;30662;51.210;7.656;2022-08-19T02:40:59;17.33;;;15.60;;
44925;SDS011;30662;51.210;7.656;2022-08-19T02:43:36;17.27;;;14.82;;
44925;SDS011;30662;51.210;7.656;2022-08-19T02:46:13;18.45;;;15.02;;
44925;SDS011;30662;51.210;7.656;2022-08-19T02:48:49;18.90;;;14.40;;
44925;SDS011;30662;51.210;7.656;2022-08-19T02:51:18;17.50;;;13.57;;
44925;SDS011;30662;51.210;7.656;2022-08-19T02:53:45;15.23;;;13.68;;
44925;SDS011;30662;51.210;7.656;2022-08-19T02:56:11;16.58;;;13.50;;
44925;SDS011;30662;51.210;7.656;2022-08-19T02:58:37;15.77;;;14.15;;
44925;SDS011;30662;51.210;7.656;2022-08-19T03:01:04;15.07;;;13.48;;
44925;SDS011;30662;51.210;7.656;2022-08-19T03:03:31;17.30;;;13.80;;
44925;SDS011;30662;51.210;7.656;2022-08-19T03:06:08;15.23;;;13.18;;
44925;SDS011;30662;51.210;7.656;2022-08-19T03:08:36;16.08;;;13.63;;
44925;SDS011;30662;51.210;7.656;2022-08-19T03:11:03;14.23;;;12.70;;
44925;SDS011;30662;51.210;7.656;2022-08-19T03:13:29;15.18;;;13.13;;
44925;SDS011;30662;51.210;7.656;2022-08-19T03:15:55;15.50;;;13.90;;
44925;SDS011;30662;51.210;7.656;2022-08-19T03:18:21;14.85;;;12.38;;
44925;SDS011;30662;51.210;7.656;2022-08-19T03:20:49;13.50;;;12.15;;
44925;SDS011;30662;51.210;7.656;2022-08-19T03:23:18;13.65;;;12.32;;
44925;SDS011;30662;51.210;7.656;2022-08-19T03:25:45;13.43;;;12.13;;
44925;SDS011;30662;51.210;7.656;2022-08-19T03:28:33;14.02;;;12.48;;
44925;SDS011;30662;51.210;7.656;2022-08-19T03:31:00;18.05;;;12.43;;
44925;SDS011;30662;51.210;7.656;2022-08-19T03:33:29;14.70;;;13.23;;
44925;SDS011;30662;51.210;7.656;2022-08-19T03:36:07;16.17;;;12.88;;
44925;SDS011;30662;51.210;7.656;2022-08-19T03:38:34;13.15;;;11.75;;
44925;SDS011;30662;51.210;7.656;2022-08-19T03:41:03;15.07;;;12.68;;
44925;SDS011;30662;51.210;7.656;2022-08-19T03:43:32;14.50;;;12.85;;
44925;SDS011;30662;51.210;7.656;2022-08-19T03:46:01;13.70;;;12.30;;
44925;SDS011;30662;51.210;7.656;2022-08-19T03:48:29;14.15;;;12.63;;
44925;SDS011;30662;51.210;7.656;2022-08-19T03:50:57;16.27;;;13.55;;
44925;SDS011;30662;51.210;7.656;2022-08-19T03:53:25;17.25;;;12.82;;
44925;SDS011;30662;51.210;7.656;2022-08-19T03:55:52;14.60;;;12.50;;
44925;SDS011;30662;51.210;7.656;2022-08-19T03:58:19;13.90;;;12.27;;
44925;SDS011;30662;51.210;7.656;2022-08-19T04:00:46;14.60;;;12.60;;
44925;SDS011;30662;51.210;7.656;2022-08-19T04:03:12;12.88;;;11.57;;
44925;SDS011;30662;51.210;7.656;2022-08-19T04:05:38;13.02;;;11.40;;
44925;SDS011;30662;51.210;7.656;2022-08-19T04:08:04;12.85;;;11.48;;
44925;SDS011;30662;51.210;7.656;2022-08-19T04:10:36;13.00;;;11.20;;
44925;SDS011;30662;51.210;7.656;2022-08-19T04:13:04;11.95;;;10.65;;
44925;SDS011;30662;51.210;7.656;2022-08-19T04:15:31;13.52;;;11.55;;
44925;SDS011;30662;51.210;7.656;2022-08-19T04:18:04;13.13;;;11.77;;
44925;SDS011;30662;51.210;7.656;2022-08-19T04:20:38;12.52;;;11.32;;
44925;SDS011;30662;51.210;7.656;2022-08-19T04:23:13;14.25;;;12.65;;
44925;SDS011;30662;51.210;7.656;2022-08-19T04:25:40;17.08;;;12.80;;
44925;SDS011;30662;51.210;7.656;2022-08-19T04:28:08;14.40;;;11.30;;
44925;SDS011;30662;51.210;7.656;2022-08-19T04:30:37;12.15;;;10.68;;
44925;SDS011;30662;51.210;7.656;2022-08-19T04:33:05;15.25;;;10.95;;
44925;SDS011;30662;51.210;7.656;2022-08-19T04:35:35;10.65;;;9.48;;
44925;SDS011;30662;51.210;7.656;2022-08-19T04:38:02;10.38;;;9.25;;
44925;SDS011;30662;51.210;7.656;2022-08-19T04:40:28;10.13;;;9.02;;
44925;SDS011;30662;51.210;7.656;2022-08-19T04:43:12;11.80;;;10.00;;
44925;SDS011;30662;51.210;7.656;2022-08-19T04:45:44;10.45;;;9.45;;
44925;SDS011;30662;51.210;7.656;2022-08-19T04:48:11;14.50;;;10.10;;
44925;SDS011;30662;51.210;7.656;2022-08-19T04:50:53;11.27;;;10.23;;
44925;SDS011;30662;51.210;7.656;2022-08-19T04:53:26;10.95;;;8.55;;
44925;SDS011;30662;51.210;7.656;2022-08-19T04:55:54;9.23;;;8.32;;
44925;SDS011;30662;51.210;7.656;2022-08-19T04:58:24;12.23;;;9.10;;
44925;SDS011;30662;51.210;7.656;2022-08-19T05:00:51;9.43;;;8.35;;
44925;SDS011;30662;51.210;7.656;2022-08-19T05:03:18;10.35;;;9.00;;
44925;SDS011;30662;51.210;7.656;2022-08-19T05:05:46;9.88;;;8.98;;
44925;SDS011;30662;51.210;7.656;2022-08-19T05:08:15;12.05;;;10.13;;
44925;SDS011;30662;51.210;7.656;2022-08-19T05:10:56;10.63;;;9.55;;
44925;SDS011;30662;51.210;7.656;2022-08-19T05:13:22;9.70;;;8.73;;
44925;SDS011;30662;51.210;7.656;2022-08-19T05:15:56;9.73;;;8.35;;
44925;SDS011;30662;51.210;7.656;2022-08-19T05:18:24;11.65;;;10.38;;
44925;SDS011;30662;51.210;7.656;2022-08-19T05:21:09;13.48;;;12.07;;
44925;SDS011;30662;51.210;7.656;2022-08-19T05:23:55;12.40;;;11.20;;
44925;SDS011;30662;51.210;7.656;2022-08-19T05:26:23;13.15;;;10.73;;
44925;SDS011;30662;51.210;7.656;2022-08-19T05:28:51;13.52;;;10.70;;
44925;SDS011;30662;51.210;7.656;2022-08-19T05:31:20;15.15;;;11.10;;
44925;SDS011;30662;51.210;7.656;2022-08-19T05:33:46;12.27;;;11.07;;
44925;SDS011;30662;51.210;7.656;2022-08-19T05:36:12;15.63;;;10.70;;
44925;SDS011;30662;51.210;7.656;2022-08-19T05:38:39;12.80;;;11.55;;
44925;SDS011;30662;51.210;7.656;2022-08-19T05:41:09;12.50;;;11.35;;
44925;SDS011;30662;51.210;7.656;2022-08-19T05:43:36;14.38;;;12.93;;
44925;SDS011;30662;51.210;7.656;2022-08-19T05:46:03;13.27;;;11.65;;
44925;SDS011;30662;51.210;7.656;2022-08-19T05:48:32;14.13;;;12.63;;
44925;SDS011;30662;51.210;7.656;2022-08-19T05:51:02;12.80;;;11.50;;
44925;SDS011;30662;51.210;7.656;2022-08-19T05:53:30;14.02;;;10.80;;
44925;SDS011;30662;51.210;7.656;2022-08-19T05:55:56;13.55;;;11.68;;
44925;SDS011;30662;51.210;7.656;2022-08-19T05:58:24;12.88;;;10.27;;
44925;SDS011;30662;51.210;7.656;2022-08-19T06:00:53;11.63;;;10.43;;
44925;SDS011;30662;51.210;7.656;2022-08-19T06:03:19;13.75;;;10.55;;
44925;SDS011;30662;51.210;7.656;2022-08-19T06:05:45;10.27;;;9.00;;
44925;SDS011;30662;51.210;7.656;2022-08-19T06:08:17;10.48;;;9.35;;
44925;SDS011;30662;51.210;7.656;2022-08-19T06:10:43;11.02;;;9.73;;
44925;SDS011;30662;51.210;7.656;2022-08-19T06:13:09;11.88;;;10.32;;
44925;SDS011;30662;51.210;7.656;2022-08-19T06:15:35;11.98;;;9.00;;
44925;SDS011;30662;51.210;7.656;2022-08-19T06:18:01;13.43;;;9.18;;
44925;SDS011;30662;51.210;7.656;2022-08-19T06:20:26;10.27;;;8.82;;
44925;SDS011;30662;51.210;7.656;2022-08-19T06:23:12;10.80;;;9.30;;
44925;SDS011;30662;51.210;7.656;2022-08-19T06:25:42;11.02;;;9.98;;
44925;SDS011;30662;51.210;7.656;2022-08-19T06:28:08;13.27;;;11.38;;
44925;SDS011;30662;51.210;7.656;2022-08-19T06:30:40;13.13;;;11.32;;
44925;SDS011;30662;51.210;7.656;2022-08-19T06:33:07;13.38;;;11.38;;
44925;SDS011;30662;51.210;7.656;2022-08-19T06:35:32;14.82;;;12.90;;
44925;SDS011;30662;51.210;7.656;2022-08-19T06:38:03;11.82;;;10.63;;
44925;SDS011;30662;51.210;7.656;2022-08-19T06:40:30;14.27;;;10.95;;
44925;SDS011;30662;51.210;7.656;2022-08-19T06:42:56;12.15;;;10.95;;
44925;SDS011;30662;51.210;7.656;2022-08-19T06:45:26;13.75;;;11.00;;
44925;SDS011;30662;51.210;7.656;2022-08-19T06:48:01;13.10;;;11.77;;
44925;SDS011;30662;51.210;7.656;2022-08-19T06:50:28;14.25;;;12.68;;
44925;SDS011;30662;51.210;7.656;2022-08-19T06:52:54;15.70;;;14.07;;
44925;SDS011;30662;51.210;7.656;2022-08-19T06:55:20;18.50;;;13.93;;
44925;SDS011;30662;51.210;7.656;2022-08-19T06:57:46;15.77;;;14.20;;
44925;SDS011;30662;51.210;7.656;2022-08-19T07:00:13;15.13;;;13.13;;
44925;SDS011;30662;51.210;7.656;2022-08-19T07:02:40;15.98;;;14.27;;
44925;SDS011;30662;51.210;7.656;2022-08-19T07:05:20;18.55;;;14.88;;
44925;SDS011;30662;51.210;7.656;2022-08-19T07:07:47;16.52;;;14.73;;
44925;SDS011;30662;51.210;7.656;2022-08-19T07:10:13;17.75;;;14.80;;
44925;SDS011;30662;51.210;7.656;2022-08-19T07:12:39;18.50;;;13.80;;
44925;SDS011;30662;51.210;7.656;2022-08-19T07:15:06;16.20;;;14.20;;
44925;SDS011;30662;51.210;7.656;2022-08-19T07:17:34;18.33;;;15.35;;
44925;SDS011;30662;51.210;7.656;2022-08-19T07:20:01;17.67;;;15.10;;
44925;SDS011;30662;51.210;7.656;2022-08-19T07:22:32;18.25;;;15.30;;
44925;SDS011;30662;51.210;7.656;2022-08-19T07:24:59;17.27;;;15.57;;
44925;SDS011;30662;51.210;7.656;2022-08-19T07:27:25;19.23;;;16.50;;
44925;SDS011;30662;51.210;7.656;2022-08-19T07:29:52;20.33;;;18.13;;
44925;SDS011;30662;51.210;7.656;2022-08-19T07:32:21;20.05;;;17.95;;
44925;SDS011;30662;51.210;7.656;2022-08-19T07:34:47;20.30;;;18.05;;
44925;SDS011;30662;51.210;7.656;2022-08-19T07:37:13;25.00;;;19.92;;
44925;SDS011;30662;51.210;7.656;2022-08-19T07:39:39;23.55;;;18.77;;
44925;SDS011;30662;51.210;7.656;2022-08-19T07:42:06;20.35;;;18.20;;
44925;SDS011;30662;51.210;7.656;2022-08-19T07:44:38;18.35;;;16.55;;
44925;SDS011;30662;51.210;7.656;2022-08-19T07:47:09;24.10;;;18.40;;
44925;SDS011;30662;51.210;7.656;2022-08-19T07:49:55;19.58;;;17.52;;
44925;SDS011;30662;51.210;7.656;2022-08-19T07:52:21;21.13;;;17.58;;
44925;SDS011;30662;51.210;7.656;2022-08-19T07:54:48;20.17;;;16.52;;
44925;SDS011;30662;51.210;7.656;2022-08-19T07:57:15;18.30;;;14.68;;
44925;SDS011;30662;51.210;7.656;2022-08-19T07:59:41;15.10;;;13.50;;
44925;SDS011;30662;51.210;7.656;2022-08-19T08:02:07;17.60;;;15.60;;
44925;SDS011;30662;51.210;7.656;2022-08-19T08:04:34;15.35;;;13.65;;
44925;SDS011;30662;51.210;7.656;2022-08-19T08:07:19;18.08;;;15.13;;
44925;SDS011;30662;51.210;7.656;2022-08-19T08:10:05;15.95;;;14.32;;
44925;SDS011;30662;51.210;7.656;2022-08-19T08:12:45;17.15;;;15.27;;
44925;SDS011;30662;51.210;7.656;2022-08-19T08:15:31;15.30;;;13.68;;
44925;SDS011;30662;51.210;7.656;2022-08-19T08:17:57;16.60;;;13.65;;
44925;SDS011;30662;51.210;7.656;2022-08-19T08:20:24;16.98;;;13.52;;
44925;SDS011;30662;51.210;7.656;2022-08-19T08:22:50;14.05;;;12.73;;
44925;SDS011;30662;51.210;7.656;2022-08-19T08:25:35;16.05;;;13.38;;
44925;SDS011;30662;51.210;7.656;2022-08-19T08:28:02;13.27;;;11.93;;
44925;SDS011;30662;51.210;7.656;2022-08-19T08:30:30;13.90;;;12.50;;
44925;SDS011;30662;51.210;7.656;2022-08-19T08:32:58;13.23;;;11.70;;
44925;SDS011;30662;51.210;7.656;2022-08-19T08:35:24;11.75;;;10.52;;
44925;SDS011;30662;51.210;7.656;2022-08-19T08:37:51;13.10;;;11.77;;
44925;SDS011;30662;51.210;7.656;2022-08-19T08:43:03;11.50;;;10.48;;
44925;SDS011;30662;51.210;7.656;2022-08-19T08:45:38;10.98;;;9.88;;
44925;SDS011;30662;51.210;7.656;2022-08-19T08:48:29;12.52;;;8.77;;
44925;SDS011;30662;51.210;7.656;2022-08-19T08:50:59;10.95;;;8.82;;
44925;SDS011;30662;51.210;7.656;2022-08-19T08:53:30;9.13;;;7.50;;
44925;SDS011;30662;51.210;7.656;2022-08-19T08:56:04;9.97;;;9.03;;
44925;SDS011;30662;51.210;7.656;2022-08-19T08:58:44;8.55;;;7.50;;
44925;SDS011;30662;51.210;7.656;2022-08-19T09:01:20;10.77;;;9.75;;
44925;SDS011;30662;51.210;7.656;2022-08-19T09:03:46;9.30;;;8.40;;
44925;SDS011;30662;51.210;7.656;2022-08-19T09:06:20;10.95;;;9.95;;
44925;SDS011;30662;51.210;7.656;2022-08-19T09:09:04;11.02;;;8.88;;
44925;SDS011;30662;51.210;7.656;2022-08-19T09:11:48;8.60;;;7.68;;
44925;SDS011;30662;51.210;7.656;2022-08-19T09:17:30;8.02;;;6.93;;
44925;SDS011;30662;51.210;7.656;2022-08-19T09:20:06;10.55;;;7.70;;
44925;SDS011;30662;51.210;7.656;2022-08-19T09:22:35;13.35;;;8.45;;
44925;SDS011;30662;51.210;7.656;2022-08-19T09:25:03;8.98;;;8.15;;
44925;SDS011;30662;51.210;7.656;2022-08-19T09:27:30;7.55;;;6.75;;
44925;SDS011;30662;51.210;7.656;2022-08-19T09:30:14;8.02;;;7.07;;
44925;SDS011;30662;51.210;7.656;2022-08-19T09:32:50;8.15;;;6.20;;
44925;SDS011;30662;51.210;7.656;2022-08-19T09:35:22;10.40;;;7.93;;
44925;SDS011;30662;51.210;7.656;2022-08-19T09:37:50;7.35;;;6.65;;
44925;SDS011;30662;51.210;7.656;2022-08-19T09:40:23;8.40;;;6.95;;
44925;SDS011;30662;51.210;7.656;2022-08-19T09:42:50;7.85;;;7.13;;
44925;SDS011;30662;51.210;7.656;2022-08-19T09:45:19;6.78;;;6.15;;
44925;SDS011;30662;51.210;7.656;2022-08-19T09:47:48;7.45;;;6.40;;
44925;SDS011;30662;51.210;7.656;2022-08-19T09:50:16;7.00;;;5.65;;
44925;SDS011;30662;51.210;7.656;2022-08-19T09:52:43;7.78;;;6.20;;
44925;SDS011;30662;51.210;7.656;2022-08-19T09:55:20;7.45;;;5.97;;
44925;SDS011;30662;51.210;7.656;2022-08-19T09:57:49;13.77;;;5.70;;
44925;SDS011;30662;51.210;7.656;2022-08-19T10:00:15;9.88;;;5.60;;
44925;SDS011;30662;51.210;7.656;2022-08-19T10:02:41;6.00;;;5.40;;
44925;SDS011;30662;51.210;7.656;2022-08-19T10:05:10;7.88;;;7.05;;
44925;SDS011;30662;51.210;7.656;2022-08-19T10:07:56;5.60;;;5.03;;
44925;SDS011;30662;51.210;7.656;2022-08-19T10:10:22;6.65;;;6.05;;
44925;SDS011;30662;51.210;7.656;2022-08-19T10:12:49;12.43;;;7.68;;
44925;SDS011;30662;51.210;7.656;2022-08-19T10:15:15;9.50;;;6.63;;
44925;SDS011;30662;51.210;7.656;2022-08-19T10:17:42;8.05;;;6.00;;
44925;SDS011;30662;51.210;7.656;2022-08-19T10:20:20;8.45;;;6.95;;
44925;SDS011;30662;51.210;7.656;2022-08-19T10:22:46;8.65;;;6.00;;
44925;SDS011;30662;51.210;7.656;2022-08-19T10:25:17;7.38;;;5.70;;
44925;SDS011;30662;51.210;7.656;2022-08-19T10:27:43;8.60;;;6.30;;
44925;SDS011;30662;51.210;7.656;2022-08-19T10:30:16;7.15;;;6.45;;
44925;SDS011;30662;51.210;7.656;2022-08-19T10:32:42;7.50;;;6.45;;
44925;SDS011;30662;51.210;7.656;2022-08-19T10:35:12;9.40;;;6.85;;
44925;SDS011;30662;51.210;7.656;2022-08-19T10:37:41;8.55;;;6.22;;
44925;SDS011;30662;51.210;7.656;2022-08-19T10:40:22;6.00;;;5.40;;
44925;SDS011;30662;51.210;7.656;2022-08-19T10:42:48;5.57;;;5.13;;
44925;SDS011;30662;51.210;7.656;2022-08-19T10:45:15;9.15;;;6.57;;
44925;SDS011;30662;51.210;7.656;2022-08-19T10:47:41;6.68;;;6.07;;
44925;SDS011;30662;51.210;7.656;2022-08-19T10:50:08;9.50;;;6.60;;
44925;SDS011;30662;51.210;7.656;2022-08-19T10:52:54;9.75;;;7.88;;
44925;SDS011;30662;51.210;7.656;2022-08-19T10:55:22;9.38;;;8.50;;
44925;SDS011;30662;51.210;7.656;2022-08-19T10:58:15;7.35;;;6.70;;
44925;SDS011;30662;51.210;7.656;2022-08-19T11:00:43;9.93;;;9.02;;
44925;SDS011;30662;51.210;7.656;2022-08-19T11:03:09;10.05;;;9.05;;
44925;SDS011;30662;51.210;7.656;2022-08-19T11:05:35;12.27;;;9.60;;
44925;SDS011;30662;51.210;7.656;2022-08-19T11:08:06;9.32;;;8.52;;
44925;SDS011;30662;51.210;7.656;2022-08-19T11:10:49;12.48;;;7.97;;
44925;SDS011;30662;51.210;7.656;2022-08-19T11:13:16;9.00;;;8.10;;
44925;SDS011;30662;51.210;7.656;2022-08-19T11:15:42;10.45;;;9.27;;
44925;SDS011;30662;51.210;7.656;2022-08-19T11:18:08;10.57;;;9.27;;
44925;SDS011;30662;51.210;7.656;2022-08-19T11:20:38;12.57;;;11.25;;
44925;SDS011;30662;51.210;7.656;2022-08-19T11:23:04;10.57;;;9.50;;
44925;SDS011;30662;51.210;7.656;2022-08-19T11:25:30;10.10;;;9.07;;
44925;SDS011;30662;51.210;7.656;2022-08-19T11:27:56;13.40;;;11.77;;
44925;SDS011;30662;51.210;7.656;2022-08-19T11:30:22;14.23;;;12.80;;
44925;SDS011;30662;51.210;7.656;2022-08-19T11:32:48;11.43;;;10.40;;
44925;SDS011;30662;51.210;7.656;2022-08-19T11:35:15;13.88;;;12.57;;
44925;SDS011;30662;51.210;7.656;2022-08-19T11:37:41;14.98;;;13.57;;
44925;SDS011;30662;51.210;7.656;2022-08-19T11:40:07;12.90;;;10.65;;
44925;SDS011;30662;51.210;7.656;2022-08-19T11:42:34;10.82;;;9.75;;
44925;SDS011;30662;51.210;7.656;2022-08-19T11:45:18;11.93;;;10.20;;
44925;SDS011;30662;51.210;7.656;2022-08-19T11:47:44;10.35;;;9.30;;
44925;SDS011;30662;51.210;7.656;2022-08-19T11:50:11;9.13;;;8.23;;
44925;SDS011;30662;51.210;7.656;2022-08-19T11:52:37;7.65;;;6.90;;
44925;SDS011;30662;51.210;7.656;2022-08-19T11:55:03;7.88;;;6.80;;
44925;SDS011;30662;51.210;7.656;2022-08-19T11:57:30;6.90;;;6.22;;
44925;SDS011;30662;51.210;7.656;2022-08-19T11:59:56;9.25;;;8.45;;
44925;SDS011;30662;51.210;7.656;2022-08-19T12:02:22;8.95;;;7.47;;
44925;SDS011;30662;51.210;7.656;2022-08-19T12:04:48;6.97;;;6.25;;
44925;SDS011;30662;51.210;7.656;2022-08-19T12:07:15;7.93;;;6.97;;
44925;SDS011;30662;51.210;7.656;2022-08-19T12:09:40;8.48;;;7.07;;
44925;SDS011;30662;51.210;7.656;2022-08-19T12:12:08;6.88;;;6.28;;
44925;SDS011;30662;51.210;7.656;2022-08-19T12:14:35;7.50;;;6.50;;
44925;SDS011;30662;51.210;7.656;2022-08-19T12:17:01;8.60;;;7.90;;
44925;SDS011;30662;51.210;7.656;2022-08-19T12:19:29;9.52;;;7.15;;
44925;SDS011;30662;51.210;7.656;2022-08-19T12:21:58;7.45;;;6.75;;
44925;SDS011;30662;51.210;7.656;2022-08-19T12:24:26;8.07;;;7.28;;
44925;SDS011;30662;51.210;7.656;2022-08-19T12:26:52;6.72;;;5.95;;
44925;SDS011;30662;51.210;7.656;2022-08-19T12:29:25;8.70;;;6.47;;
44925;SDS011;30662;51.210;7.656;2022-08-19T12:31:55;7.50;;;6.70;;
44925;SDS011;30662;51.210;7.656;2022-08-19T12:34:29;11.32;;;9.13;;
44925;SDS011;30662;51.210;7.656;2022-08-19T12:37:00;9.52;;;7.93;;
44925;SDS011;30662;51.210;7.656;2022-08-19T12:39:28;11.52;;;7.70;;
44925;SDS011;30662;51.210;7.656;2022-08-19T12:41:55;6.85;;;6.25;;
44925;SDS011;30662;51.210;7.656;2022-08-19T12:44:22;6.30;;;5.70;;
44925;SDS011;30662;51.210;7.656;2022-08-19T12:46:58;7.40;;;6.70;;
44925;SDS011;30662;51.210;7.656;2022-08-19T12:49:27;8.98;;;7.05;;
44925;SDS011;30662;51.210;7.656;2022-08-19T12:52:14;8.18;;;6.90;;
44925;SDS011;30662;51.210;7.656;2022-08-19T12:54:48;6.82;;;6.22;;
44925;SDS011;30662;51.210;7.656;2022-08-19T12:57:20;8.40;;;6.53;;
44925;SDS011;30662;51.210;7.656;2022-08-19T12:59:51;7.20;;;6.43;;
44925;SDS011;30662;51.210;7.656;2022-08-19T13:02:19;8.43;;;7.28;;
44925;SDS011;30662;51.210;7.656;2022-08-19T13:04:46;7.70;;;7.00;;
44925;SDS011;30662;51.210;7.656;2022-08-19T13:07:12;9.93;;;7.45;;
44925;SDS011;30662;51.210;7.656;2022-08-19T13:09:38;10.43;;;7.13;;
44925;SDS011;30662;51.210;7.656;2022-08-19T13:12:06;9.20;;;6.20;;
44925;SDS011;30662;51.210;7.656;2022-08-19T13:14:38;7.25;;;6.00;;
44925;SDS011;30662;51.210;7.656;2022-08-19T13:17:06;11.02;;;5.95;;
44925;SDS011;30662;51.210;7.656;2022-08-19T13:19:32;6.38;;;5.40;;
44925;SDS011;30662;51.210;7.656;2022-08-19T13:21:58;6.05;;;5.30;;
44925;SDS011;30662;51.210;7.656;2022-08-19T13:24:25;6.13;;;4.78;;
44925;SDS011;30662;51.210;7.656;2022-08-19T13:27:02;7.00;;;4.68;;
44925;SDS011;30662;51.210;7.656;2022-08-19T13:29:28;7.15;;;4.97;;
44925;SDS011;30662;51.210;7.656;2022-08-19T13:32:12;7.93;;;5.13;;
44925;SDS011;30662;51.210;7.656;2022-08-19T13:34:57;4.72;;;4.32;;
44925;SDS011;30662;51.210;7.656;2022-08-19T13:37:23;10.25;;;6.03;;
44925;SDS011;30662;51.210;7.656;2022-08-19T13:40:07;6.47;;;5.80;;
44925;SDS011;30662;51.210;7.656;2022-08-19T13:42:39;7.43;;;6.03;;
44925;SDS011;30662;51.210;7.656;2022-08-19T13:45:07;8.25;;;7.45;;
44925;SDS011;30662;51.210;7.656;2022-08-19T13:47:34;8.00;;;6.97;;
44925;SDS011;30662;51.210;7.656;2022-08-19T13:50:03;8.32;;;6.25;;
44925;SDS011;30662;51.210;7.656;2022-08-19T13:52:30;9.95;;;6.70;;
44925;SDS011;30662;51.210;7.656;2022-08-19T13:54:56;8.85;;;7.03;;
44925;SDS011;30662;51.210;7.656;2022-08-19T13:57:22;10.55;;;6.18;;
44925;SDS011;30662;51.210;7.656;2022-08-19T13:59:48;9.55;;;6.72;;
44925;SDS011;30662;51.210;7.656;2022-08-19T14:02:14;9.32;;;5.22;;
44925;SDS011;30662;51.210;7.656;2022-08-19T14:04:40;8.32;;;7.03;;
44925;SDS011;30662;51.210;7.656;2022-08-19T14:07:06;6.72;;;6.13;;
44925;SDS011;30662;51.210;7.656;2022-08-19T14:09:31;6.65;;;6.15;;
44925;SDS011;30662;51.210;7.656;2022-08-19T14:11:57;6.28;;;5.68;;
44925;SDS011;30662;51.210;7.656;2022-08-19T14:14:23;7.13;;;6.32;;
44925;SDS011;30662;51.210;7.656;2022-08-19T14:16:49;6.80;;;6.20;;
44925;SDS011;30662;51.210;7.656;2022-08-19T14:19:15;8.85;;;6.93;;
44925;SDS011;30662;51.210;7.656;2022-08-19T14:21:41;5.40;;;4.90;;
44925;SDS011;30662;51.210;7.656;2022-08-19T14:24:07;5.78;;;4.85;;
44925;SDS011;30662;51.210;7.656;2022-08-19T14:26:34;5.75;;;5.15;;
44925;SDS011;30662;51.210;7.656;2022-08-19T14:29:00;8.48;;;4.32;;
44925;SDS011;30662;51.210;7.656;2022-08-19T14:31:26;5.13;;;4.63;;
44925;SDS011;30662;51.210;7.656;2022-08-19T14:33:56;6.28;;;4.82;;
44925;SDS011;30662;51.210;7.656;2022-08-19T14:36:22;7.13;;;4.57;;
44925;SDS011;30662;51.210;7.656;2022-08-19T14:38:48;4.57;;;4.10;;
44925;SDS011;30662;51.210;7.656;2022-08-19T14:41:18;4.55;;;3.95;;
44925;SDS011;30662;51.210;7.656;2022-08-19T14:43:46;6.22;;;3.58;;
44925;SDS011;30662;51.210;7.656;2022-08-19T14:46:16;4.57;;;3.40;;
44925;SDS011;30662;51.210;7.656;2022-08-19T14:48:45;4.97;;;3.70;;
44925;SDS011;30662;51.210;7.656;2022-08-19T14:51:17;5.57;;;3.78;;
44925;SDS011;30662;51.210;7.656;2022-08-19T14:53:44;4.78;;;3.83;;